createdAt,value
2022-11-19T00:00:09.941Z,6.87
2022-11-19T00:02:58.435Z,8.73
2022-11-19T00:05:28.140Z,8.07
2022-11-19T00:07:56.759Z,8.50
2022-11-19T00:10:25.064Z,7.93
2022-11-19T00:12:55.187Z,8.37
2022-11-19T00:15:24.320Z,7.57
2022-11-19T00:17:53.247Z,6.80
2022-11-19T00:20:21.555Z,7.57
2022-11-19T00:22:54.263Z,6.53
2022-11-19T00:25:23.224Z,6.87
2022-11-19T00:27:52.544Z,7.70
2022-11-19T00:30:46.291Z,6.83
2022-11-19T00:33:09.678Z,6.63
2022-11-19T00:35:37.976Z,7.07
2022-11-19T00:38:07.872Z,6.47
2022-11-19T00:40:36.161Z,7.73
2022-11-19T00:43:22.283Z,7.23
2022-11-19T00:45:50.951Z,6.57
2022-11-19T00:48:19.532Z,5.73
2022-11-19T00:50:47.905Z,6.07
2022-11-19T00:53:18.022Z,5.77
2022-11-19T00:55:46.324Z,6.07
2022-11-19T00:58:14.888Z,5.40
2022-11-19T01:00:43.340Z,6.17
2022-11-19T01:03:11.981Z,6.90
2022-11-19T01:05:40.317Z,6.37
2022-11-19T01:08:08.893Z,7.20
2022-11-19T01:10:38.617Z,6.57
2022-11-19T01:13:24.715Z,5.73
2022-11-19T01:15:53.098Z,6.27
2022-11-19T01:18:21.842Z,5.60
2022-11-19T01:20:50.153Z,5.87
2022-11-19T01:23:18.815Z,5.40
2022-11-19T01:25:48.843Z,6.83
2022-11-19T01:28:17.607Z,7.20
2022-11-19T01:30:45.949Z,5.93
2022-11-19T01:33:14.718Z,7.13
2022-11-19T01:35:42.985Z,5.90
2022-11-19T01:38:11.459Z,6.83
2022-11-19T01:40:44.680Z,6.10
2022-11-19T01:43:15.357Z,5.83
2022-11-19T01:45:48.199Z,4.87
2022-11-19T01:48:21.957Z,7.17
2022-11-19T01:50:52.097Z,7.30
2022-11-19T01:53:22.183Z,6.63
2022-11-19T01:55:51.641Z,7.13
2022-11-19T01:58:25.093Z,7.13
2022-11-19T02:00:53.526Z,7.80
2022-11-19T02:03:22.262Z,7.00
2022-11-19T02:05:51.384Z,7.20
2022-11-19T02:08:39.396Z,8.83
2022-11-19T02:11:44.074Z,8.77
2022-11-19T02:14:33.517Z,9.07
2022-11-19T02:17:15.895Z,9.77
2022-11-19T02:20:08.845Z,11.10
2022-11-19T02:22:58.981Z,12.13
2022-11-19T02:25:48.937Z,11.97
2022-11-19T02:28:32.814Z,12.50
2022-11-19T02:31:09.735Z,11.37
2022-11-19T02:33:44.314Z,12.63
2022-11-19T02:36:21.400Z,12.40
2022-11-19T02:38:56.016Z,12.83
2022-11-19T02:41:37.762Z,11.27
2022-11-19T02:44:34.921Z,13.03
2022-11-19T02:47:07.754Z,14.67
2022-11-19T02:49:40.413Z,12.47
2022-11-19T02:52:10.146Z,13.03
2022-11-19T02:54:38.589Z,12.03
2022-11-19T02:57:07.269Z,11.93
2022-11-19T02:59:58.496Z,12.17
2022-11-19T03:02:48.930Z,12.73
2022-11-19T03:05:21.962Z,11.13
2022-11-19T03:07:50.718Z,9.97
2022-11-19T03:10:22.194Z,9.47
2022-11-19T03:12:54.672Z,10.63
2022-11-19T03:15:47.470Z,10.07
2022-11-19T03:18:22.343Z,8.93
2022-11-19T03:20:55.914Z,9.63
2022-11-19T03:23:30.798Z,10.00
2022-11-19T03:26:06.363Z,10.40
2022-11-19T03:28:37.526Z,10.20
2022-11-19T03:31:07.386Z,11.20
2022-11-19T03:33:41.098Z,10.33
2022-11-19T03:36:15.347Z,9.57
2022-11-19T03:38:48.870Z,9.87
2022-11-19T03:41:19.828Z,10.23
2022-11-19T03:43:53.420Z,11.03
2022-11-19T03:46:24.250Z,10.57
2022-11-19T03:48:55.597Z,9.60
2022-11-19T03:51:29.685Z,10.97
2022-11-19T03:53:58.701Z,11.17
2022-11-19T03:56:28.836Z,10.73
2022-11-19T03:59:00.495Z,10.67
2022-11-19T04:01:28.796Z,10.23
2022-11-19T04:04:16.397Z,10.90
2022-11-19T04:06:44.768Z,11.17
2022-11-19T04:09:13.406Z,12.37
2022-11-19T04:11:42.007Z,11.67
2022-11-19T04:14:10.687Z,11.63
2022-11-19T04:16:39.037Z,11.17
2022-11-19T04:19:08.975Z,11.30
2022-11-19T04:21:37.301Z,11.13
2022-11-19T04:24:06.819Z,10.20
2022-11-19T04:26:35.224Z,10.13
2022-11-19T04:29:03.948Z,9.93
2022-11-19T04:31:32.375Z,10.53
2022-11-19T04:34:01.158Z,10.43
2022-11-19T04:36:30.984Z,10.13
2022-11-19T04:39:00.326Z,9.63
2022-11-19T04:41:28.696Z,9.03
2022-11-19T04:43:57.357Z,10.67
2022-11-19T04:46:25.561Z,9.13
2022-11-19T04:48:54.297Z,9.17
2022-11-19T04:51:22.628Z,9.40
2022-11-19T04:53:52.554Z,9.50
2022-11-19T04:56:20.819Z,8.90
2022-11-19T04:58:49.340Z,9.37
2022-11-19T05:01:20.500Z,9.17
2022-11-19T05:03:50.758Z,9.30
2022-11-19T05:06:19.408Z,9.07
2022-11-19T05:08:48.051Z,7.83
2022-11-19T05:11:17.763Z,8.73
2022-11-19T05:13:46.293Z,8.13
2022-11-19T05:16:14.652Z,10.07
2022-11-19T05:18:43.161Z,8.07
2022-11-19T05:21:11.483Z,7.83
2022-11-19T05:23:39.999Z,8.70
2022-11-19T05:26:08.279Z,8.30
2022-11-19T05:28:39.676Z,7.60
2022-11-19T05:31:09.083Z,8.53
2022-11-19T05:33:37.612Z,8.50
2022-11-19T05:36:06.768Z,6.60
2022-11-19T05:38:35.348Z,8.27
2022-11-19T05:41:03.585Z,8.27
2022-11-19T05:43:32.117Z,8.13
2022-11-19T05:46:02.649Z,7.83
2022-11-19T05:48:31.587Z,7.63
2022-11-19T05:50:59.842Z,7.77
2022-11-19T05:53:28.686Z,7.80
2022-11-19T05:55:56.982Z,7.77
2022-11-19T05:58:25.525Z,7.20
2022-11-19T06:00:56.109Z,8.53
2022-11-19T06:03:26.394Z,8.07
2022-11-19T06:05:54.738Z,7.43
2022-11-19T06:08:24.186Z,7.63
2022-11-19T06:10:52.560Z,8.03
2022-11-19T06:13:21.428Z,7.67
2022-11-19T06:15:50.128Z,7.77
2022-11-19T06:18:18.780Z,7.33
2022-11-19T06:20:48.515Z,8.40
2022-11-19T06:23:17.277Z,7.93
2022-11-19T06:25:45.770Z,6.43
2022-11-19T06:28:14.342Z,6.70
2022-11-19T06:30:42.660Z,6.90
2022-11-19T06:33:11.339Z,7.83
2022-11-19T06:35:39.732Z,7.57
2022-11-19T06:38:09.632Z,8.57
2022-11-19T06:40:38.018Z,6.70
2022-11-19T06:43:06.765Z,6.80
2022-11-19T06:45:35.273Z,7.63
2022-11-19T06:48:04.713Z,9.80
2022-11-19T06:50:33.263Z,7.27
2022-11-19T06:53:02.038Z,6.80
2022-11-19T06:55:31.865Z,7.40
2022-11-19T06:58:03.530Z,8.10
2022-11-19T07:00:32.132Z,9.30
2022-11-19T07:03:00.732Z,8.77
2022-11-19T07:05:29.449Z,7.90
2022-11-19T07:08:02.822Z,8.33
2022-11-19T07:10:33.910Z,9.00
2022-11-19T07:13:02.945Z,7.97
2022-11-19T07:15:31.337Z,9.40
2022-11-19T07:17:59.979Z,7.97
2022-11-19T07:20:29.079Z,7.70
2022-11-19T07:22:59.304Z,8.43
2022-11-19T07:25:28.163Z,8.27
2022-11-19T07:27:58.252Z,8.37
2022-11-19T07:30:26.648Z,8.77
2022-11-19T07:32:55.585Z,8.23
2022-11-19T07:35:24.140Z,9.13
2022-11-19T07:37:52.737Z,9.83
2022-11-19T07:40:21.130Z,8.57
2022-11-19T07:42:51.795Z,9.57
2022-11-19T07:45:23.250Z,8.87
2022-11-19T07:47:51.931Z,10.60
2022-11-19T07:50:20.422Z,8.23
2022-11-19T07:52:48.998Z,8.60
2022-11-19T07:55:17.534Z,8.87
2022-11-19T07:57:46.466Z,8.90
2022-11-19T08:00:15.863Z,8.97
2022-11-19T08:02:46.217Z,8.57
2022-11-19T08:05:14.574Z,8.57
2022-11-19T08:07:43.868Z,9.10
2022-11-19T08:10:13.015Z,9.47
2022-11-19T08:13:02.262Z,9.07
2022-11-19T08:15:31.856Z,10.20
2022-11-19T08:18:14.056Z,8.17
2022-11-19T08:20:43.560Z,9.80
2022-11-19T08:23:13.320Z,7.60
2022-11-19T08:25:47.487Z,8.90
2022-11-19T08:28:16.220Z,7.60
2022-11-19T08:30:45.596Z,7.97
2022-11-19T08:33:15.817Z,8.50
2022-11-19T08:35:44.169Z,8.37
2022-11-19T08:38:13.053Z,8.10
2022-11-19T08:40:41.477Z,7.67
2022-11-19T08:43:09.054Z,7.83
2022-11-19T08:45:39.613Z,8.03
2022-11-19T08:48:10.602Z,8.07
2022-11-19T08:50:43.658Z,7.57
2022-11-19T08:53:12.766Z,7.80
2022-11-19T08:55:41.254Z,8.17
2022-11-19T08:58:12.038Z,8.67
2022-11-19T09:00:41.309Z,9.00
2022-11-19T09:03:10.045Z,8.97
2022-11-19T09:05:40.683Z,8.30
2022-11-19T09:08:09.804Z,8.20
2022-11-19T09:10:39.439Z,7.07
2022-11-19T09:13:08.616Z,7.13
2022-11-19T09:15:37.774Z,7.43
2022-11-19T09:18:06.647Z,7.87
2022-11-19T09:20:36.072Z,7.77
2022-11-19T09:23:06.476Z,6.57
2022-11-19T09:25:34.993Z,6.63
2022-11-19T09:28:03.928Z,7.10
2022-11-19T09:30:32.388Z,8.40
2022-11-19T09:33:01.155Z,7.40
2022-11-19T09:35:29.853Z,8.00
2022-11-19T09:37:58.524Z,7.83
2022-11-19T09:40:28.674Z,7.90
2022-11-19T09:43:12.583Z,7.90
2022-11-19T09:45:55.539Z,7.50
2022-11-19T09:48:33.797Z,8.37
2022-11-19T09:51:04.883Z,7.67
2022-11-19T09:53:37.223Z,6.90
2022-11-19T09:56:07.880Z,7.40
2022-11-19T09:58:41.459Z,7.43
2022-11-19T10:01:14.370Z,7.27
2022-11-19T10:03:47.971Z,7.27
2022-11-19T10:06:26.896Z,6.60
2022-11-19T10:09:18.949Z,7.77
2022-11-19T10:11:57.720Z,6.13
2022-11-19T10:14:40.585Z,5.83
2022-11-19T10:17:20.547Z,6.43
2022-11-19T10:20:03.426Z,6.17
2022-11-19T10:22:39.829Z,6.00
2022-11-19T10:25:18.345Z,5.63
2022-11-19T10:27:55.106Z,7.60
2022-11-19T10:30:25.756Z,8.00
2022-11-19T10:32:59.833Z,6.53
2022-11-19T10:35:33.958Z,6.57
2022-11-19T10:38:05.409Z,7.27
2022-11-19T10:40:39.668Z,8.03
2022-11-19T10:43:23.332Z,6.60
2022-11-19T10:45:52.440Z,6.07
2022-11-19T10:48:23.219Z,6.97
2022-11-19T10:50:52.257Z,6.87
2022-11-19T10:53:26.164Z,6.60
2022-11-19T10:55:58.685Z,6.77
2022-11-19T10:58:34.557Z,6.20
2022-11-19T11:01:06.132Z,5.73
2022-11-19T11:03:39.235Z,6.87
2022-11-19T11:06:10.252Z,6.93
2022-11-19T11:08:49.641Z,6.37
2022-11-19T11:11:26.070Z,5.87
2022-11-19T11:14:19.866Z,6.57
2022-11-19T11:16:49.731Z,7.90
2022-11-19T11:19:20.918Z,6.27
2022-11-19T11:21:53.971Z,7.10
2022-11-19T11:24:31.417Z,6.53
2022-11-19T11:27:22.068Z,7.50
2022-11-19T11:30:06.262Z,6.53
2022-11-19T11:32:35.206Z,6.37
2022-11-19T11:35:08.228Z,7.27
2022-11-19T11:37:38.827Z,6.63
2022-11-19T11:40:08.754Z,7.07
2022-11-19T11:42:37.524Z,8.07
2022-11-19T11:45:21.350Z,7.73
2022-11-19T11:47:50.463Z,8.10
2022-11-19T11:50:24.258Z,6.57
2022-11-19T11:52:54.999Z,6.87
2022-11-19T11:55:33.426Z,6.87
2022-11-19T11:58:04.131Z,7.23
2022-11-19T12:00:36.433Z,7.37
2022-11-19T12:03:07.398Z,6.37
2022-11-19T12:05:48.375Z,7.50
2022-11-19T12:08:39.798Z,6.07
2022-11-19T12:11:16.338Z,7.17
2022-11-19T12:13:56.324Z,7.63
2022-11-19T12:16:43.048Z,7.13
2022-11-19T12:19:32.977Z,6.83
2022-11-19T12:22:08.709Z,7.93
2022-11-19T12:24:51.023Z,6.70
2022-11-19T12:27:30.621Z,8.20
2022-11-19T12:30:06.190Z,8.00
2022-11-19T12:33:04.475Z,7.60
2022-11-19T12:35:45.143Z,6.33
2022-11-19T12:38:25.070Z,6.83
2022-11-19T12:41:02.257Z,6.80
2022-11-19T12:43:49.927Z,6.70
2022-11-19T12:46:27.549Z,6.93
2022-11-19T12:49:08.781Z,7.07
2022-11-19T12:51:48.605Z,6.17
2022-11-19T12:54:33.396Z,5.20
2022-11-19T12:57:18.915Z,6.17
2022-11-19T13:00:08.539Z,6.10
2022-11-19T13:02:46.601Z,5.07
2022-11-19T13:05:20.933Z,5.77
2022-11-19T13:07:56.026Z,5.43
2022-11-19T13:10:26.954Z,5.13
2022-11-19T13:12:58.209Z,4.83
2022-11-19T13:15:32.164Z,4.53
2022-11-19T13:18:04.690Z,5.50
2022-11-19T13:20:41.948Z,4.60
2022-11-19T13:23:16.852Z,4.17
2022-11-19T13:25:51.841Z,4.70
2022-11-19T13:28:26.180Z,5.27
2022-11-19T13:30:56.357Z,4.10
2022-11-19T13:33:32.182Z,4.80
2022-11-19T13:36:08.691Z,4.80
2022-11-19T13:38:45.744Z,4.43
2022-11-19T13:41:20.265Z,4.53
2022-11-19T13:44:07.617Z,4.80
2022-11-19T13:46:41.288Z,5.27
2022-11-19T13:49:18.657Z,4.67
2022-11-19T13:51:51.555Z,4.77
2022-11-19T13:54:25.721Z,4.70
2022-11-19T13:56:57.982Z,4.20
2022-11-19T13:59:34.858Z,5.07
2022-11-19T14:02:34.262Z,5.37
2022-11-19T14:05:40.382Z,4.40
2022-11-19T14:08:32.533Z,5.40
2022-11-19T14:11:13.409Z,4.53
2022-11-19T14:14:34.301Z,4.67
2022-11-19T14:17:30.922Z,5.47
2022-11-19T14:20:16.940Z,5.13
2022-11-19T14:23:13.377Z,5.30
2022-11-19T14:26:02.999Z,5.17
2022-11-19T14:28:48.401Z,6.03
2022-11-19T14:31:19.708Z,6.17
2022-11-19T14:34:00.314Z,5.80
2022-11-19T14:36:47.675Z,6.57
2022-11-19T14:39:23.521Z,6.30
2022-11-19T14:42:14.945Z,5.67
2022-11-19T14:44:44.599Z,7.00
2022-11-19T14:47:34.492Z,7.27
2022-11-19T14:50:08.253Z,5.93
2022-11-19T14:52:39.862Z,6.40
2022-11-19T14:55:23.507Z,5.33
2022-11-19T14:58:01.094Z,7.30
2022-11-19T15:00:33.118Z,7.17
2022-11-19T15:03:03.526Z,6.53
2022-11-19T15:05:34.671Z,7.83
2022-11-19T15:08:44.140Z,6.73
2022-11-19T15:11:13.981Z,6.97
2022-11-19T15:13:45.212Z,6.70
2022-11-19T15:16:16.730Z,7.23
2022-11-19T15:19:19.154Z,7.37
2022-11-19T15:22:09.090Z,7.20
2022-11-19T15:24:58.863Z,7.97
2022-11-19T15:27:40.451Z,7.63
2022-11-19T15:30:16.257Z,8.00
2022-11-19T15:33:22.595Z,7.37
2022-11-19T15:36:39.717Z,7.53
2022-11-19T15:39:16.663Z,7.80
2022-11-19T15:42:00.604Z,9.03
2022-11-19T15:44:40.775Z,9.07
2022-11-19T15:47:15.621Z,7.27
2022-11-19T15:49:45.875Z,7.83
2022-11-19T15:52:21.456Z,8.40
2022-11-19T15:54:50.321Z,7.77
2022-11-19T15:57:27.096Z,8.83
2022-11-19T15:59:59.003Z,8.47
2022-11-19T16:02:34.748Z,9.90
2022-11-19T16:05:03.574Z,8.73
2022-11-19T16:07:32.940Z,9.27
2022-11-19T16:10:02.362Z,7.30
2022-11-19T16:12:48.220Z,9.60
2022-11-19T16:15:37.203Z,8.33
2022-11-19T16:18:13.750Z,8.63
2022-11-19T16:20:45.307Z,8.43
2022-11-19T16:23:17.783Z,8.20
2022-11-19T16:25:47.101Z,8.23
2022-11-19T16:28:18.016Z,9.53
2022-11-19T16:30:50.260Z,9.23
2022-11-19T16:33:22.265Z,9.17
2022-11-19T16:35:53.294Z,9.57
2022-11-19T16:38:27.324Z,10.07
2022-11-19T16:41:14.464Z,9.77
2022-11-19T16:44:05.759Z,8.47
2022-11-19T16:46:36.429Z,8.70
2022-11-19T16:49:09.975Z,11.00
2022-11-19T16:51:59.061Z,9.97
2022-11-19T16:54:49.123Z,9.30
2022-11-19T16:57:20.880Z,10.73
2022-11-19T16:59:53.799Z,9.83
2022-11-19T17:02:24.435Z,9.90
2022-11-19T17:04:54.799Z,9.53
2022-11-19T17:07:25.729Z,8.37
2022-11-19T17:10:10.473Z,9.07
2022-11-19T17:12:50.287Z,9.57
2022-11-19T17:15:40.717Z,9.83
2022-11-19T17:18:14.889Z,9.53
2022-11-19T17:20:52.812Z,9.60
2022-11-19T17:23:22.849Z,9.47
2022-11-19T17:25:53.949Z,9.43
2022-11-19T17:28:28.515Z,9.70
2022-11-19T17:30:57.889Z,9.23
2022-11-19T17:33:26.247Z,9.83
2022-11-19T17:35:56.104Z,8.27
2022-11-19T17:38:27.648Z,9.90
2022-11-19T17:40:58.291Z,10.47
2022-11-19T17:43:50.230Z,9.93
2022-11-19T17:46:19.169Z,9.77
2022-11-19T17:48:49.042Z,10.97
2022-11-19T17:51:20.854Z,10.30
2022-11-19T17:53:51.283Z,11.03
2022-11-19T17:56:22.935Z,11.00
2022-11-19T17:58:51.318Z,12.13
2022-11-19T18:01:20.685Z,10.97
2022-11-19T18:03:49.657Z,11.10
2022-11-19T18:06:20.148Z,11.17
2022-11-19T18:08:48.518Z,11.07
2022-11-19T18:11:19.592Z,11.10
2022-11-19T18:13:49.312Z,11.73
2022-11-19T18:16:19.714Z,11.03
2022-11-19T18:18:48.387Z,11.73
2022-11-19T18:21:21.124Z,10.87
2022-11-19T18:23:51.340Z,11.23
2022-11-19T18:26:22.566Z,12.70
2022-11-19T18:28:50.957Z,10.83
2022-11-19T18:31:21.843Z,11.37
2022-11-19T18:33:50.706Z,12.20
2022-11-19T18:36:21.167Z,10.17
2022-11-19T18:38:49.458Z,10.33
2022-11-19T18:41:20.003Z,10.20
2022-11-19T18:44:06.334Z,11.13
2022-11-19T18:46:34.990Z,10.97
2022-11-19T18:49:03.240Z,10.97
2022-11-19T18:51:34.295Z,11.23
2022-11-19T18:54:02.861Z,11.10
2022-11-19T18:56:31.491Z,10.70
2022-11-19T18:59:04.520Z,12.40
2022-11-19T19:01:34.839Z,10.73
2022-11-19T19:04:03.324Z,10.73
2022-11-19T19:06:33.878Z,11.07
2022-11-19T19:09:02.449Z,12.17
2022-11-19T19:11:48.216Z,12.67
2022-11-19T19:14:16.539Z,11.97
2022-11-19T19:16:45.079Z,11.97
2022-11-19T19:19:16.141Z,11.50
2022-11-19T19:21:46.233Z,11.60
2022-11-19T19:24:14.877Z,10.20
2022-11-19T19:26:43.579Z,11.47
2022-11-19T19:29:12.812Z,10.20
2022-11-19T19:31:41.368Z,10.20
2022-11-19T19:34:09.603Z,9.43
2022-11-19T19:36:38.282Z,10.90
2022-11-19T19:39:08.200Z,9.77
2022-11-19T19:41:36.801Z,10.20
2022-11-19T19:44:07.020Z,10.57
2022-11-19T19:46:36.142Z,10.13
2022-11-19T19:49:04.804Z,9.67
2022-11-19T19:51:33.680Z,10.73
2022-11-19T19:54:02.169Z,11.17
2022-11-19T19:56:33.538Z,11.00
2022-11-19T19:59:02.811Z,10.57
2022-11-19T20:01:33.200Z,9.97
2022-11-19T20:04:02.967Z,8.97
2022-11-19T20:06:33.958Z,10.77
2022-11-19T20:09:08.134Z,9.70
2022-11-19T20:11:39.621Z,10.03
2022-11-19T20:14:08.511Z,10.10
2022-11-19T20:16:40.575Z,10.27
2022-11-19T20:19:11.610Z,10.57
2022-11-19T20:21:40.293Z,9.70
2022-11-19T20:24:12.656Z,10.00
2022-11-19T20:26:43.682Z,9.43
2022-11-19T20:29:14.310Z,8.27
2022-11-19T20:31:47.677Z,10.43
2022-11-19T20:34:17.235Z,10.20
2022-11-19T20:36:46.181Z,9.83
2022-11-19T20:39:14.620Z,10.43
2022-11-19T20:41:58.498Z,13.07
2022-11-19T20:44:26.968Z,12.03
2022-11-19T20:46:57.337Z,11.37
2022-11-19T20:49:27.328Z,13.20
2022-11-19T20:51:56.777Z,12.50
2022-11-19T20:54:26.473Z,12.60
2022-11-19T20:56:57.732Z,14.03
2022-11-19T20:59:27.524Z,12.83
2022-11-19T21:01:57.736Z,13.13
2022-11-19T21:04:28.534Z,11.30
2022-11-19T21:06:57.362Z,12.13
2022-11-19T21:09:26.206Z,13.03
2022-11-19T21:11:56.207Z,13.33
2022-11-19T21:14:24.854Z,12.13
2022-11-19T21:16:53.319Z,11.70
2022-11-19T21:19:22.126Z,12.20
2022-11-19T21:21:50.965Z,12.87
2022-11-19T21:24:19.823Z,11.87
2022-11-19T21:26:48.589Z,12.27
2022-11-19T21:29:18.737Z,10.43
2022-11-19T21:31:49.084Z,11.83
2022-11-19T21:34:20.596Z,11.70
2022-11-19T21:36:49.763Z,10.90
2022-11-19T21:39:20.110Z,10.33
2022-11-19T21:41:48.793Z,9.30
2022-11-19T21:44:21.862Z,10.93
2022-11-19T21:46:50.594Z,10.20
2022-11-19T21:49:19.465Z,10.83
2022-11-19T21:51:49.041Z,11.07
2022-11-19T21:54:18.925Z,11.70
2022-11-19T21:56:47.258Z,11.67
2022-11-19T21:59:15.844Z,10.70
2022-11-19T22:01:53.332Z,11.33
2022-11-19T22:04:23.301Z,11.63
2022-11-19T22:06:51.803Z,12.30
2022-11-19T22:09:20.597Z,10.50
2022-11-19T22:11:49.052Z,12.60
2022-11-19T22:14:17.593Z,12.97
2022-11-19T22:16:47.624Z,12.77
2022-11-19T22:19:16.381Z,13.33
2022-11-19T22:21:46.653Z,11.97
2022-11-19T22:27:01.561Z,12.20
2022-11-19T22:29:30.399Z,11.77
2022-11-19T22:32:00.144Z,11.67
2022-11-19T22:34:29.057Z,13.17
2022-11-19T22:36:57.549Z,11.70
2022-11-19T22:39:26.523Z,11.33
2022-11-19T22:41:55.178Z,11.07
2022-11-19T22:44:23.976Z,10.57
2022-11-19T22:46:52.531Z,10.70
2022-11-19T22:49:22.779Z,12.80
2022-11-19T22:51:51.453Z,10.30
2022-11-19T22:54:19.999Z,11.33
2022-11-19T22:56:48.429Z,10.70
2022-11-19T22:59:17.978Z,10.63
2022-11-19T23:01:46.356Z,11.37
2022-11-19T23:04:16.239Z,10.63
2022-11-19T23:06:45.984Z,11.57
2022-11-19T23:09:14.608Z,11.73
2022-11-19T23:12:00.849Z,12.77
2022-11-19T23:14:30.171Z,12.53
2022-11-19T23:16:58.428Z,12.37
2022-11-19T23:19:27.073Z,11.13
2022-11-19T23:21:56.719Z,11.50
2022-11-19T23:24:25.311Z,11.13
2022-11-19T23:26:53.599Z,10.90
2022-11-19T23:29:22.688Z,12.43
2022-11-19T23:31:51.254Z,12.17
2022-11-19T23:34:19.821Z,12.10
2022-11-19T23:36:48.098Z,11.40
2022-11-19T23:39:19.392Z,12.90
2022-11-19T23:41:48.124Z,12.20
2022-11-19T23:44:16.663Z,12.63
2022-11-19T23:46:45.206Z,11.47
2022-11-19T23:49:13.924Z,11.50
2022-11-19T23:51:42.211Z,11.80
2022-11-19T23:54:13.191Z,11.50
2022-11-19T23:56:42.977Z,11.23
2022-11-19T23:59:11.593Z,11.70
